Time;durP1;ratioP1;P1;durP2;ratioP2;P2;SDS_P1;SDS_P2;PMS_P1;PMS_P2;Temp;Humidity;BMP_temperature;BMP_pressure;BME280_temperature;BME280_humidity;BME280_pressure;Samples;Min_cycle;Max_cycle;Signal;HPM_P1;HPM_P2
2023/11/29 00:00:18;;;;;;;0.10;0.08;;;4.30;86.40;;;;;;4988361;28;20030;-73
2023/11/29 00:02:44;;;;;;;1.27;0.40;;;4.00;87.50;;;;;;4991369;28;20026;-73
2023/11/29 00:05:12;;;;;;;0.40;0.20;;;4.00;88.10;;;;;;4990566;28;20131;-73
2023/11/29 00:07:43;;;;;;;0.03;0.00;;;4.20;86.60;;;;;;4990751;28;20133;-73
2023/11/29 00:10:09;;;;;;;1.38;0.30;;;4.10;87.10;;;;;;4991660;28;20034;-73
2023/11/29 00:12:35;;;;;;;0.43;0.10;;;3.80;88.40;;;;;;4990167;28;20065;-73
2023/11/29 00:15:02;;;;;;;0.85;0.20;;;3.60;88.20;;;;;;4990950;28;20554;-73
2023/11/29 00:17:27;;;;;;;0.70;0.30;;;4.00;86.60;;;;;;4995081;28;20152;-73
2023/11/29 00:19:53;;;;;;;1.17;0.38;;;4.10;87.00;;;;;;4995560;28;20484;-73
2023/11/29 00:22:19;;;;;;;0.40;0.20;;;3.80;87.00;;;;;;4994577;28;20038;-73
2023/11/29 00:24:48;;;;;;;0.15;0.13;;;3.90;86.90;;;;;;4996176;28;20056;-73
2023/11/29 00:27:14;;;;;;;0.28;0.20;;;3.90;85.80;;;;;;4997710;28;20049;-73
2023/11/29 00:29:40;;;;;;;0.15;0.10;;;4.00;86.20;;;;;;4996957;28;20466;-73
2023/11/29 00:32:06;;;;;;;0.10;0.10;;;3.60;87.30;;;;;;4998511;28;20030;-73
2023/11/29 00:34:31;;;;;;;0.28;0.22;;;3.40;88.40;;;;;;4999661;28;20026;-73
2023/11/29 00:36:58;;;;;;;0.20;0.08;;;3.40;88.50;;;;;;5000071;28;20113;-73
2023/11/29 00:39:24;;;;;;;0.73;0.17;;;3.60;86.90;;;;;;4998551;28;20052;-73
2023/11/29 00:41:50;;;;;;;0.15;0.10;;;3.80;86.00;;;;;;4998579;28;20034;-73
2023/11/29 00:44:15;;;;;;;0.35;0.20;;;3.40;87.40;;;;;;4999378;28;20033;-73
2023/11/29 00:46:41;;;;;;;0.35;0.08;;;3.20;88.40;;;;;;4999374;28;20453;-73
2023/11/29 00:49:07;;;;;;;0.20;0.10;;;2.90;89.60;;;;;;4998631;28;20124;-73
2023/11/29 00:51:33;;;;;;;0.65;0.20;;;3.30;87.40;;;;;;4998550;28;20048;-73
2023/11/29 00:53:58;;;;;;;0.80;0.15;;;3.70;85.80;;;;;;4998633;28;20161;-73
2023/11/29 00:56:24;;;;;;;0.50;0.20;;;3.50;87.10;;;;;;4998880;28;20046;-73
2023/11/29 00:58:50;;;;;;;0.40;0.10;;;3.70;85.40;;;;;;4999403;28;20073;-73
2023/11/29 01:01:16;;;;;;;0.52;0.28;;;3.70;85.60;;;;;;4999421;28;20026;-73
2023/11/29 01:03:42;;;;;;;1.02;0.08;;;4.00;84.20;;;;;;4998985;28;20057;-73
2023/11/29 01:06:08;;;;;;;0.63;0.10;;;3.80;85.20;;;;;;4999402;28;20104;-73
2023/11/29 01:08:33;;;;;;;0.10;0.10;;;3.80;84.60;;;;;;4998267;28;20046;-73
2023/11/29 01:10:59;;;;;;;0.05;0.05;;;4.00;83.90;;;;;;4996933;28;20060;-73
2023/11/29 01:13:27;;;;;;;0.00;0.00;;;4.00;83.80;;;;;;4998178;28;20117;-73
2023/11/29 01:15:53;;;;;;;0.65;0.10;;;3.80;84.30;;;;;;4998665;28;20091;-73
2023/11/29 01:18:18;;;;;;;0.35;0.10;;;3.70;84.70;;;;;;4999056;28;20026;-73
2023/11/29 01:20:44;;;;;;;0.05;0.00;;;3.50;85.70;;;;;;4996698;28;20037;-73
2023/11/29 01:23:11;;;;;;;0.13;0.00;;;3.80;83.90;;;;;;5000501;28;20069;-73
2023/11/29 01:25:36;;;;;;;0.10;0.10;;;3.80;83.90;;;;;;4998336;28;20116;-73
2023/11/29 01:28:05;;;;;;;0.17;0.10;;;3.80;84.30;;;;;;4997182;28;20132;-73
2023/11/29 01:30:31;;;;;;;0.55;0.20;;;3.50;85.20;;;;;;4997316;28;21418;-73
2023/11/29 01:32:57;;;;;;;0.25;0.00;;;3.40;85.90;;;;;;4998504;28;20091;-73
2023/11/29 01:35:23;;;;;;;0.32;0.20;;;3.20;86.90;;;;;;4999058;28;20038;-73
2023/11/29 01:37:49;;;;;;;0.28;0.03;;;2.80;88.10;;;;;;4997101;28;20037;-73
2023/11/29 01:40:14;;;;;;;1.15;0.22;;;3.00;86.50;;;;;;4996664;28;20030;-73
2023/11/29 01:42:40;;;;;;;0.22;0.10;;;3.00;87.40;;;;;;4995352;28;20460;-73
2023/11/29 01:45:07;;;;;;;0.47;0.10;;;3.00;87.00;;;;;;4998809;28;20033;-73
2023/11/29 01:47:34;;;;;;;0.03;0.03;;;3.00;86.80;;;;;;4998056;28;20447;-73
2023/11/29 01:50:07;;;;;;;0.22;0.00;;;3.30;85.50;;;;;;4999513;28;20029;-73
2023/11/29 01:52:34;;;;;;;0.45;0.10;;;3.30;85.60;;;;;;4997214;28;20069;-73
2023/11/29 01:55:01;;;;;;;0.52;0.17;;;3.20;85.80;;;;;;4996523;28;20038;-73
2023/11/29 01:57:27;;;;;;;0.60;0.10;;;3.30;85.70;;;;;;4997453;28;20038;-73
2023/11/29 01:59:53;;;;;;;0.00;0.00;;;3.00;86.40;;;;;;4996245;28;20455;-73
2023/11/29 02:02:19;;;;;;;0.40;0.10;;;3.20;85.30;;;;;;4997196;28;20069;-73
2023/11/29 02:04:46;;;;;;;0.00;0.00;;;3.10;85.80;;;;;;4997241;28;20061;-73
2023/11/29 02:07:12;;;;;;;2.80;0.43;;;3.00;86.40;;;;;;4997230;28;20070;-73
2023/11/29 02:09:40;;;;;;;0.10;0.00;;;2.80;86.90;;;;;;4996054;28;20033;-73
2023/11/29 02:12:07;;;;;;;0.30;0.15;;;3.00;86.20;;;;;;4996637;28;20037;-73
2023/11/29 02:14:41;;;;;;;0.50;0.15;;;2.80;87.10;;;;;;4997019;28;20033;-73
2023/11/29 02:17:08;;;;;;;0.57;0.10;;;2.90;86.70;;;;;;4996275;28;20133;-73
2023/11/29 02:19:34;;;;;;;1.25;0.30;;;2.80;87.20;;;;;;4996308;28;20052;-73
2023/11/29 02:22:00;;;;;;;1.10;0.10;;;2.70;88.50;;;;;;4997861;28;20480;-73
2023/11/29 02:24:32;;;;;;;0.10;0.10;;;2.50;88.60;;;;;;4999070;28;20069;-73
2023/11/29 02:26:58;;;;;;;0.08;0.08;;;2.60;88.60;;;;;;4996827;28;20072;-73
2023/11/29 02:29:24;;;;;;;0.68;0.20;;;3.10;86.70;;;;;;4996371;28;20781;-73
2023/11/29 02:31:50;;;;;;;0.00;0.00;;;3.10;86.50;;;;;;4997045;28;20115;-73
2023/11/29 02:34:16;;;;;;;0.30;0.13;;;2.90;87.20;;;;;;4996505;28;20113;-73
2023/11/29 02:36:41;;;;;;;0.32;0.17;;;3.00;86.00;;;;;;4996323;28;20038;-73
2023/11/29 02:39:09;;;;;;;5.28;2.05;;;2.90;86.80;;;;;;4996414;28;20033;-73
2023/11/29 02:41:37;;;;;;;1.05;0.63;;;3.50;84.50;;;;;;4995991;28;20038;-73
2023/11/29 02:44:04;;;;;;;0.25;0.10;;;3.40;85.00;;;;;;4996307;28;20034;-73
2023/11/29 02:46:29;;;;;;;0.13;0.00;;;3.40;84.40;;;;;;4996452;28;20033;-73
2023/11/29 02:48:57;;;;;;;0.25;0.10;;;3.30;84.80;;;;;;4996087;28;20534;-73
2023/11/29 02:51:27;;;;;;;0.10;0.00;;;3.40;84.20;;;;;;4996909;28;20038;-73
2023/11/29 02:53:53;;;;;;;0.17;0.00;;;3.40;84.90;;;;;;4997612;28;20034;-73
2023/11/29 02:56:19;;;;;;;0.10;0.10;;;3.00;86.40;;;;;;4994011;28;20041;-73
2023/11/29 02:58:45;;;;;;;0.52;0.17;;;3.00;85.70;;;;;;4996947;28;20034;-73
2023/11/29 03:01:10;;;;;;;0.88;0.30;;;2.80;86.50;;;;;;4996353;28;20046;-73
2023/11/29 03:03:36;;;;;;;0.52;0.20;;;2.90;86.10;;;;;;4995951;28;20116;-73
2023/11/29 03:06:02;;;;;;;0.60;0.25;;;2.80;87.00;;;;;;4994911;28;20129;-73
2023/11/29 03:08:27;;;;;;;0.38;0.22;;;2.70;86.90;;;;;;4996210;28;20049;-73
2023/11/29 03:10:54;;;;;;;0.75;0.20;;;3.20;84.40;;;;;;4995300;28;20619;-73
2023/11/29 03:13:19;;;;;;;0.20;0.15;;;3.30;84.50;;;;;;4994951;28;20128;-73
2023/11/29 03:15:45;;;;;;;0.47;0.20;;;3.20;85.10;;;;;;4996337;28;20472;-73
2023/11/29 03:18:10;;;;;;;0.80;0.20;;;3.20;85.40;;;;;;4995389;28;20089;-73
2023/11/29 03:20:36;;;;;;;0.13;0.10;;;2.90;86.30;;;;;;4995958;28;20042;-73
2023/11/29 03:23:02;;;;;;;0.15;0.10;;;2.80;86.60;;;;;;4995315;28;20476;-73
2023/11/29 03:25:27;;;;;;;0.55;0.10;;;3.00;85.20;;;;;;4995657;28;20046;-73
2023/11/29 03:27:54;;;;;;;0.50;0.10;;;3.10;85.40;;;;;;4996177;28;20038;-73
2023/11/29 03:30:19;;;;;;;0.10;0.10;;;3.00;85.50;;;;;;4995845;28;20492;-73
2023/11/29 03:32:45;;;;;;;0.30;0.10;;;2.70;86.20;;;;;;4994445;28;20048;-73
2023/11/29 03:35:11;;;;;;;0.75;0.22;;;2.60;86.20;;;;;;4995958;28;20472;-73
2023/11/29 03:37:36;;;;;;;0.85;0.17;;;2.30;87.50;;;;;;4996139;28;20042;-73
2023/11/29 03:40:02;;;;;;;0.80;0.20;;;2.10;88.20;;;;;;4995954;28;20064;-73
2023/11/29 03:42:28;;;;;;;0.73;0.20;;;2.20;87.90;;;;;;4994647;28;20061;-75
2023/11/29 03:44:53;;;;;;;0.70;0.13;;;2.20;87.60;;;;;;4996412;28;20392;-75
2023/11/29 03:47:19;;;;;;;0.20;0.00;;;2.30;87.40;;;;;;4996293;28;20475;-75
2023/11/29 03:49:45;;;;;;;0.08;0.08;;;2.40;86.80;;;;;;4995452;28;20045;-75
2023/11/29 03:52:11;;;;;;;0.05;0.00;;;2.10;88.40;;;;;;4993732;28;20030;-75
2023/11/29 03:54:36;;;;;;;0.82;0.10;;;2.00;88.80;;;;;;4995802;28;20030;-75
2023/11/29 03:57:02;;;;;;;0.47;0.13;;;2.00;88.40;;;;;;4996727;28;20041;-75
2023/11/29 03:59:28;;;;;;;0.10;0.10;;;2.20;87.60;;;;;;4995196;28;20038;-75
2023/11/29 04:01:53;;;;;;;0.85;0.20;;;1.90;88.50;;;;;;4993531;28;20061;-73
2023/11/29 04:04:19;;;;;;;1.30;0.22;;;2.10;88.10;;;;;;4993569;28;20593;-73
2023/11/29 04:06:45;;;;;;;1.25;0.35;;;2.10;88.00;;;;;;4993581;28;20037;-75
2023/11/29 04:09:10;;;;;;;0.15;0.10;;;2.30;87.00;;;;;;4993263;28;20426;-75
2023/11/29 04:11:36;;;;;;;0.00;0.00;;;2.30;87.20;;;;;;4994371;28;20484;-75
2023/11/29 04:14:02;;;;;;;0.20;0.10;;;2.30;86.60;;;;;;4993545;28;20030;-75
2023/11/29 04:16:29;;;;;;;0.75;0.13;;;2.20;87.40;;;;;;4993884;28;20129;-76
2023/11/29 04:18:55;;;;;;;0.57;0.20;;;2.40;86.60;;;;;;4991552;28;20037;-73
2023/11/29 04:21:31;;;;;;;0.73;0.10;;;2.50;86.90;;;;;;4990219;28;20033;-73
2023/11/29 04:23:57;;;;;;;0.20;0.10;;;2.40;86.60;;;;;;4993170;28;20041;-73
2023/11/29 04:26:37;;;;;;;2.50;0.45;;;2.70;85.80;;;;;;4991853;28;20038;-73
2023/11/29 04:29:07;;;;;;;0.35;0.05;;;2.60;85.80;;;;;;4994725;28;20484;-73
2023/11/29 04:31:35;;;;;;;0.13;0.13;;;2.80;85.00;;;;;;4995231;28;20495;-73
2023/11/29 04:34:01;;;;;;;0.10;0.10;;;2.50;86.90;;;;;;4994875;28;20488;-73
2023/11/29 04:36:27;;;;;;;0.17;0.00;;;2.10;87.30;;;;;;4996060;28;20037;-75
2023/11/29 04:38:53;;;;;;;0.77;0.30;;;2.00;88.30;;;;;;4994125;28;20018;-75
2023/11/29 04:41:20;;;;;;;1.35;0.38;;;1.80;88.60;;;;;;4994252;28;20092;-75
2023/11/29 04:43:47;;;;;;;0.40;0.15;;;1.90;88.30;;;;;;4994984;28;20054;-73
2023/11/29 04:46:13;;;;;;;0.88;0.20;;;1.90;88.50;;;;;;4992911;28;20555;-75
2023/11/29 04:48:39;;;;;;;1.48;0.32;;;1.80;88.40;;;;;;4993235;28;20041;-75
2023/11/29 04:51:05;;;;;;;0.30;0.10;;;1.90;88.20;;;;;;4991530;28;20088;-75
2023/11/29 04:53:31;;;;;;;0.20;0.10;;;1.90;88.40;;;;;;4995770;28;20038;-75
2023/11/29 04:55:57;;;;;;;0.52;0.20;;;1.80;88.00;;;;;;4992537;28;20021;-75
2023/11/29 04:58:23;;;;;;;0.43;0.20;;;1.70;88.00;;;;;;4992293;28;20044;-75
2023/11/29 05:00:50;;;;;;;0.10;0.10;;;2.00;86.70;;;;;;4990807;28;20049;-75
2023/11/29 05:03:18;;;;;;;0.32;0.10;;;2.00;86.70;;;;;;4990888;28;20065;-73
2023/11/29 05:05:44;;;;;;;0.65;0.20;;;1.90;87.20;;;;;;4991623;28;20073;-73
2023/11/29 05:08:09;;;;;;;0.65;0.50;;;2.30;85.50;;;;;;4990609;28;20646;-72
2023/11/29 05:10:36;;;;;;;0.28;0.10;;;2.30;86.00;;;;;;4992108;28;20046;-73
2023/11/29 05:13:02;;;;;;;0.43;0.20;;;2.10;86.70;;;;;;4990574;28;20095;-72
2023/11/29 05:15:28;;;;;;;1.05;0.17;;;2.00;86.70;;;;;;4990759;28;20034;-73
2023/11/29 05:17:55;;;;;;;0.60;0.20;;;2.10;86.30;;;;;;4992648;28;20598;-73
2023/11/29 05:20:21;;;;;;;0.00;0.00;;;2.00;86.80;;;;;;4992407;28;20112;-75
2023/11/29 05:22:46;;;;;;;0.13;0.08;;;1.80;87.40;;;;;;4990075;28;20064;-75
2023/11/29 05:25:12;;;;;;;1.20;0.45;;;1.70;87.80;;;;;;4990328;28;20118;-73
2023/11/29 05:27:38;;;;;;;0.00;0.00;;;1.60;87.50;;;;;;4991547;28;20064;-75
2023/11/29 05:30:04;;;;;;;0.35;0.20;;;1.50;88.30;;;;;;4991399;28;20709;-75
2023/11/29 05:32:30;;;;;;;0.57;0.30;;;1.30;88.80;;;;;;4989895;28;20041;-73
2023/11/29 05:34:56;;;;;;;1.25;0.45;;;1.70;87.70;;;;;;4991526;28;20083;-73
2023/11/29 05:37:22;;;;;;;0.60;0.20;;;1.70;87.70;;;;;;4991460;28;20129;-72
2023/11/29 05:39:48;;;;;;;0.63;0.38;;;1.80;87.10;;;;;;4990318;28;20091;-73
2023/11/29 05:42:14;;;;;;;1.60;0.32;;;1.80;87.00;;;;;;4989678;28;20038;-72
2023/11/29 05:44:40;;;;;;;0.25;0.25;;;2.20;85.50;;;;;;4991102;28;20025;-73
2023/11/29 05:47:05;;;;;;;0.55;0.10;;;2.10;86.00;;;;;;4989411;28;20046;-73
2023/11/29 05:49:31;;;;;;;0.75;0.20;;;2.30;85.20;;;;;;4989535;28;20479;-73
2023/11/29 05:51:57;;;;;;;0.20;0.10;;;2.20;86.20;;;;;;4988708;28;21046;-75
2023/11/29 05:54:23;;;;;;;1.55;0.10;;;2.10;86.20;;;;;;4991100;28;20655;-75
2023/11/29 05:56:49;;;;;;;0.57;0.25;;;2.20;85.50;;;;;;4989358;28;22107;-75
2023/11/29 05:59:14;;;;;;;1.05;0.10;;;2.30;85.20;;;;;;4991542;28;20400;-75
2023/11/29 06:01:41;;;;;;;0.98;0.25;;;2.50;84.10;;;;;;4989965;28;20041;-75
2023/11/29 06:04:07;;;;;;;0.70;0.20;;;2.80;84.20;;;;;;4989738;28;20173;-73
2023/11/29 06:06:33;;;;;;;1.08;0.55;;;2.30;85.20;;;;;;4989236;28;20671;-73
2023/11/29 06:09:07;;;;;;;0.63;0.20;;;2.30;85.20;;;;;;4990514;28;20092;-73
2023/11/29 06:11:33;;;;;;;0.25;0.10;;;2.40;84.90;;;;;;4988141;28;20030;-73
2023/11/29 06:13:59;;;;;;;0.10;0.10;;;2.50;84.70;;;;;;4984749;28;20064;-74
2023/11/29 06:16:24;;;;;;;1.00;0.40;;;2.60;83.90;;;;;;4986634;28;20459;-73
2023/11/29 06:18:50;;;;;;;0.60;0.25;;;2.60;84.30;;;;;;4987143;28;20226;-73
2023/11/29 06:21:16;;;;;;;0.38;0.20;;;2.70;83.40;;;;;;4989784;28;20105;-73
2023/11/29 06:23:41;;;;;;;1.20;0.40;;;2.60;84.80;;;;;;4990777;28;20087;-75
2023/11/29 06:26:07;;;;;;;2.15;0.32;;;2.50;84.60;;;;;;4991752;28;20157;-76
2023/11/29 06:28:38;;;;;;;0.63;0.30;;;2.50;84.90;;;;;;4990660;28;20084;-72
2023/11/29 06:31:05;;;;;;;0.90;0.30;;;2.70;84.20;;;;;;4990737;28;20044;-74
2023/11/29 06:33:31;;;;;;;0.82;0.20;;;2.60;84.30;;;;;;4988443;28;20092;-72
2023/11/29 06:36:00;;;;;;;2.53;0.20;;;2.60;84.40;;;;;;4989169;28;20117;-73
2023/11/29 06:38:26;;;;;;;0.88;0.15;;;2.80;83.60;;;;;;4989696;28;20044;-72
2023/11/29 06:40:52;;;;;;;0.38;0.10;;;2.90;83.10;;;;;;4987583;28;20040;-73
2023/11/29 06:43:19;;;;;;;0.73;0.30;;;2.70;84.70;;;;;;4989704;28;20633;-72
2023/11/29 06:45:46;;;;;;;0.95;0.32;;;2.50;85.20;;;;;;4988220;28;20056;-72
2023/11/29 06:48:12;;;;;;;1.55;0.30;;;2.40;84.90;;;;;;4987677;28;20129;-72
2023/11/29 06:50:38;;;;;;;1.20;0.38;;;2.50;84.40;;;;;;4989528;28;20107;-73
2023/11/29 06:53:04;;;;;;;0.60;0.43;;;2.50;84.50;;;;;;4990099;28;20400;-73
2023/11/29 06:55:32;;;;;;;0.75;0.30;;;2.40;85.30;;;;;;4988162;28;20034;-73
2023/11/29 06:57:58;;;;;;;0.52;0.15;;;2.30;85.30;;;;;;4986731;28;20033;-72
2023/11/29 07:00:25;;;;;;;1.55;0.15;;;2.30;85.90;;;;;;4989986;28;20048;-72
2023/11/29 07:02:51;;;;;;;1.10;0.20;;;2.20;85.50;;;;;;4987425;28;20641;-73
2023/11/29 07:05:17;;;;;;;1.00;0.40;;;2.20;86.20;;;;;;4988766;28;20034;-72
2023/11/29 07:07:43;;;;;;;0.30;0.22;;;2.10;86.70;;;;;;4988104;28;20058;-71
2023/11/29 07:10:09;;;;;;;3.83;0.43;;;2.00;86.60;;;;;;4989659;28;20447;-73
2023/11/29 07:12:35;;;;;;;3.40;0.47;;;2.10;86.30;;;;;;4988366;28;20026;-72
2023/11/29 07:15:01;;;;;;;2.33;0.40;;;2.10;86.30;;;;;;4987651;28;20061;-72
2023/11/29 07:17:27;;;;;;;0.75;0.30;;;2.00;87.40;;;;;;4989162;28;20111;-72
2023/11/29 07:19:54;;;;;;;0.28;0.10;;;2.00;87.70;;;;;;4987246;28;20116;-72
2023/11/29 07:22:24;;;;;;;0.80;0.30;;;1.90;88.80;;;;;;4987849;28;20033;-73
2023/11/29 07:24:50;;;;;;;1.58;0.40;;;1.90;87.40;;;;;;4987879;28;20403;-72
2023/11/29 07:27:15;;;;;;;0.95;0.28;;;1.80;90.00;;;;;;4988983;28;20038;-72
2023/11/29 07:29:41;;;;;;;0.80;0.22;;;1.60;90.00;;;;;;4987896;28;20515;-71
2023/11/29 07:32:07;;;;;;;0.70;0.20;;;1.40;90.70;;;;;;4988693;28;20120;-72
2023/11/29 07:34:32;;;;;;;0.60;0.22;;;1.40;90.00;;;;;;4988250;28;20573;-72
2023/11/29 07:36:58;;;;;;;1.65;0.73;;;1.50;90.00;;;;;;4988704;28;20030;-73
2023/11/29 07:39:26;;;;;;;3.00;0.80;;;1.50;89.30;;;;;;4988933;28;20042;-72
2023/11/29 07:41:52;;;;;;;1.20;0.50;;;1.60;89.00;;;;;;4989205;28;20029;-73
2023/11/29 07:44:18;;;;;;;1.98;0.55;;;1.60;89.10;;;;;;4987732;28;20034;-73
2023/11/29 07:46:44;;;;;;;2.17;0.70;;;1.60;89.00;;;;;;4989225;28;20029;-73
2023/11/29 07:49:13;;;;;;;1.17;0.38;;;1.70;89.10;;;;;;4988598;28;20046;-73
2023/11/29 07:51:45;;;;;;;1.50;0.50;;;1.70;88.70;;;;;;4987935;28;20485;-73
2023/11/29 07:54:13;;;;;;;1.10;0.60;;;1.80;88.40;;;;;;4987605;28;20065;-73
2023/11/29 07:56:42;;;;;;;2.83;0.90;;;2.00;87.80;;;;;;4989426;28;20125;-72
2023/11/29 07:59:12;;;;;;;2.30;0.47;;;1.90;88.20;;;;;;4988008;28;20037;-73
2023/11/29 08:01:38;;;;;;;1.45;0.70;;;1.90;88.30;;;;;;4989019;28;20021;-72
2023/11/29 08:04:04;;;;;;;2.25;0.70;;;2.00;87.90;;;;;;4987872;28;20050;-73
2023/11/29 08:06:31;;;;;;;1.92;0.82;;;1.90;89.40;;;;;;4987462;28;20040;-73
2023/11/29 08:08:57;;;;;;;1.52;0.70;;;1.80;89.00;;;;;;4989365;28;20921;-72
2023/11/29 08:11:23;;;;;;;1.27;0.40;;;1.80;90.10;;;;;;4988237;28;20480;-73
2023/11/29 08:13:49;;;;;;;4.28;0.77;;;1.80;88.70;;;;;;4987494;28;20620;-73
2023/11/29 08:16:16;;;;;;;1.83;0.70;;;1.90;89.20;;;;;;4988004;28;20091;-73
2023/11/29 08:18:42;;;;;;;1.80;0.60;;;1.90;90.30;;;;;;4988829;28;20045;-73
2023/11/29 08:21:08;;;;;;;2.13;0.80;;;1.90;88.60;;;;;;4989744;28;20029;-73
2023/11/29 08:23:34;;;;;;;0.95;0.45;;;1.90;88.90;;;;;;4990535;28;20034;-73
2023/11/29 08:25:59;;;;;;;1.55;0.63;;;1.80;90.00;;;;;;4989717;28;20062;-73
2023/11/29 08:28:25;;;;;;;2.13;0.82;;;1.80;89.20;;;;;;4984229;28;20912;-73
2023/11/29 08:30:51;;;;;;;4.28;0.70;;;1.80;89.70;;;;;;4986082;28;20759;-73
2023/11/29 08:33:17;;;;;;;3.03;0.90;;;1.70;90.30;;;;;;4988065;28;20104;-72
2023/11/29 08:35:44;;;;;;;1.77;0.50;;;1.70;90.30;;;;;;4986114;28;20109;-73
2023/11/29 08:38:10;;;;;;;2.17;0.70;;;1.70;90.00;;;;;;4988742;28;20073;-73
2023/11/29 08:40:36;;;;;;;3.58;0.80;;;1.80;89.50;;;;;;4988150;28;20125;-72
2023/11/29 08:43:02;;;;;;;1.67;0.68;;;1.90;89.00;;;;;;4987293;28;20476;-73
2023/11/29 08:45:28;;;;;;;2.25;0.65;;;1.90;89.80;;;;;;4987478;28;20045;-73
2023/11/29 08:47:53;;;;;;;1.10;0.57;;;1.60;90.00;;;;;;4987709;28;20115;-72
2023/11/29 08:50:19;;;;;;;1.75;0.88;;;1.80;89.00;;;;;;4988912;28;20049;-72
2023/11/29 08:52:46;;;;;;;3.15;0.82;;;2.10;87.10;;;;;;4991590;28;20531;-73
2023/11/29 08:55:12;;;;;;;1.38;0.70;;;2.30;88.00;;;;;;4991010;28;20033;-72
2023/11/29 08:57:39;;;;;;;1.25;0.57;;;2.30;87.20;;;;;;4990818;28;20628;-72
2023/11/29 09:00:05;;;;;;;1.77;0.60;;;2.10;87.50;;;;;;4990050;28;20037;-72
2023/11/29 09:02:30;;;;;;;2.42;0.57;;;2.20;88.10;;;;;;4991470;28;20121;-72
2023/11/29 09:04:56;;;;;;;4.20;0.77;;;2.20;88.00;;;;;;4989519;28;20490;-72
2023/11/29 09:07:22;;;;;;;1.85;0.68;;;2.10;88.10;;;;;;4990696;28;20391;-72
2023/11/29 09:09:49;;;;;;;2.13;0.43;;;2.10;87.90;;;;;;4989980;28;20050;-72
2023/11/29 09:12:18;;;;;;;4.15;0.68;;;2.30;87.80;;;;;;4989447;28;20049;-72
2023/11/29 09:14:44;;;;;;;6.55;0.82;;;2.30;87.50;;;;;;4989766;28;20495;-73
2023/11/29 09:17:10;;;;;;;5.82;2.97;;;2.20;88.20;;;;;;4991043;28;20029;-72
2023/11/29 09:19:36;;;;;;;2.63;0.90;;;2.20;87.80;;;;;;4989810;28;20164;-72
2023/11/29 09:22:05;;;;;;;2.10;0.73;;;2.20;87.80;;;;;;4989719;28;21014;-72
2023/11/29 09:24:31;;;;;;;1.13;0.50;;;2.00;89.00;;;;;;4990283;28;20033;-72
2023/11/29 09:26:56;;;;;;;4.35;1.42;;;2.20;88.30;;;;;;4988947;28;20048;-72
2023/11/29 09:29:28;;;;;;;1.98;1.00;;;2.20;89.50;;;;;;4989360;28;20640;-72
2023/11/29 09:31:54;;;;;;;2.25;1.30;;;2.20;90.40;;;;;;4990988;28;20026;-72
2023/11/29 09:34:20;;;;;;;1.23;0.80;;;2.10;89.50;;;;;;4990657;28;20794;-72
2023/11/29 09:36:46;;;;;;;1.70;0.65;;;2.20;89.20;;;;;;4991961;28;20034;-72
2023/11/29 09:39:12;;;;;;;5.10;0.70;;;2.10;88.00;;;;;;4992572;28;20645;-72
2023/11/29 09:41:39;;;;;;;1.73;0.70;;;2.20;88.30;;;;;;4992269;28;20033;-72
2023/11/29 09:44:05;;;;;;;1.73;0.55;;;2.20;88.10;;;;;;4992587;28;20476;-72
2023/11/29 09:46:31;;;;;;;9.00;1.02;;;2.10;88.10;;;;;;4993344;28;20647;-72
2023/11/29 09:48:59;;;;;;;2.35;0.95;;;2.20;88.60;;;;;;4992120;28;20041;-72
2023/11/29 09:51:25;;;;;;;2.10;0.85;;;2.30;87.10;;;;;;4992321;28;20076;-72
2023/11/29 09:53:50;;;;;;;1.83;0.82;;;2.30;88.30;;;;;;4993058;28;20446;-72
2023/11/29 09:56:17;;;;;;;6.07;1.20;;;2.30;88.40;;;;;;4993336;28;20041;-72
2023/11/29 09:58:43;;;;;;;4.88;0.90;;;2.20;88.30;;;;;;4991933;28;23436;-73
2023/11/29 10:01:08;;;;;;;3.30;0.95;;;2.30;87.70;;;;;;4989872;28;20065;-73
2023/11/29 10:03:34;;;;;;;3.53;1.08;;;2.20;88.80;;;;;;4989870;28;20168;-73
2023/11/29 10:06:04;;;;;;;2.70;0.85;;;2.30;87.50;;;;;;4989099;28;20069;-72
2023/11/29 10:08:30;;;;;;;4.72;1.33;;;2.40;87.60;;;;;;4988402;28;20034;-72
2023/11/29 10:10:56;;;;;;;2.38;0.98;;;2.50;87.90;;;;;;4988368;28;20609;-72
2023/11/29 10:13:22;;;;;;;2.70;1.20;;;2.50;89.10;;;;;;4988823;28;20025;-72
2023/11/29 10:15:50;;;;;;;3.33;1.50;;;2.50;88.20;;;;;;4991130;28;20508;-73
2023/11/29 10:18:18;;;;;;;3.17;1.15;;;2.50;87.90;;;;;;4991844;28;20040;-73
2023/11/29 10:20:51;;;;;;;6.18;1.70;;;2.60;89.80;;;;;;4989158;28;20026;-73
2023/11/29 10:23:17;;;;;;;3.50;1.52;;;2.60;89.60;;;;;;4991144;28;20689;-73
2023/11/29 10:25:45;;;;;;;4.20;1.42;;;2.50;90.10;;;;;;4991641;28;20037;-73
2023/11/29 10:28:11;;;;;;;3.53;1.17;;;2.40;89.60;;;;;;4992260;28;20038;-73
2023/11/29 10:30:38;;;;;;;4.32;1.20;;;2.50;90.20;;;;;;4990780;28;20507;-72
2023/11/29 10:33:05;;;;;;;3.85;1.27;;;2.70;89.20;;;;;;4991091;28;20030;-72
2023/11/29 10:35:35;;;;;;;5.35;1.30;;;3.00;88.70;;;;;;4992708;28;20100;-72
2023/11/29 10:38:12;;;;;;;2.38;0.82;;;3.10;87.80;;;;;;4990423;28;20037;-72
2023/11/29 10:40:39;;;;;;;2.10;0.90;;;3.30;88.00;;;;;;4991758;28;20122;-72
2023/11/29 10:43:07;;;;;;;2.90;1.40;;;3.40;86.90;;;;;;4991715;28;20387;-72
2023/11/29 10:45:36;;;;;;;4.18;1.17;;;3.60;85.80;;;;;;4992463;28;20432;-72
2023/11/29 10:48:11;;;;;;;3.88;1.50;;;3.80;85.30;;;;;;4990093;28;20150;-73
2023/11/29 10:50:38;;;;;;;2.50;0.98;;;3.80;85.80;;;;;;4989560;28;20041;-73
2023/11/29 10:53:04;;;;;;;3.15;1.13;;;3.80;86.90;;;;;;4992509;28;20408;-73
2023/11/29 10:55:35;;;;;;;2.03;0.73;;;3.70;87.20;;;;;;4991194;28;20048;-73
2023/11/29 10:58:22;;;;;;;4.53;1.60;;;3.80;86.50;;;;;;4991559;28;20104;-73
2023/11/29 11:00:48;;;;;;;2.70;1.35;;;3.90;86.50;;;;;;4989788;28;20111;-73
2023/11/29 11:03:47;;;;;;;4.90;1.90;;;4.10;85.60;;;;;;4991399;28;20869;-73
2023/11/29 11:06:26;;;;;;;5.63;1.40;;;4.20;86.60;;;;;;4989674;28;20050;-73
2023/11/29 11:08:53;;;;;;;5.75;1.58;;;4.20;85.90;;;;;;4991291;28;20040;-72
2023/11/29 11:11:44;;;;;;;4.93;1.45;;;4.30;85.60;;;;;;4990903;28;20100;-73
2023/11/29 11:14:39;;;;;;;3.53;1.60;;;4.40;84.80;;;;;;4991703;28;20057;-73
2023/11/29 11:17:09;;;;;;;8.45;4.15;;;4.40;85.60;;;;;;4993870;28;20139;-73
2023/11/29 11:19:39;;;;;;;39.47;25.67;;;4.50;86.90;;;;;;4989057;28;20435;-73
2023/11/29 11:22:26;;;;;;;11.23;6.47;;;4.80;86.40;;;;;;4990989;28;20041;-73
2023/11/29 11:25:03;;;;;;;5.82;3.50;;;4.90;85.70;;;;;;4991047;28;20029;-72
2023/11/29 11:27:36;;;;;;;7.72;2.88;;;4.80;85.80;;;;;;4990035;28;20045;-72
2023/11/29 11:30:13;;;;;;;5.03;2.33;;;4.80;84.00;;;;;;4990633;28;20061;-73
2023/11/29 11:32:41;;;;;;;4.03;2.20;;;4.80;84.40;;;;;;4990218;28;20087;-72
2023/11/29 11:35:16;;;;;;;6.65;2.53;;;5.10;85.90;;;;;;4988686;28;20069;-72
2023/11/29 11:37:43;;;;;;;;;;;5.40;84.80;;;;;;4988109;28;22822;-73
2023/11/29 11:40:09;;;;;;;2.90;1.67;;;5.70;84.10;;;;;;4987745;28;19987;-73
2023/11/29 11:42:35;;;;;;;11.55;1.92;;;5.80;83.70;;;;;;4990969;28;20391;-73
2023/11/29 11:45:02;;;;;;;3.20;1.48;;;5.80;83.00;;;;;;4990807;28;20034;-73
2023/11/29 11:47:27;;;;;;;2.72;1.40;;;5.80;83.00;;;;;;4989949;28;20042;-73
2023/11/29 11:49:53;;;;;;;2.58;1.30;;;5.90;83.00;;;;;;4991582;28;20092;-73
2023/11/29 11:52:19;;;;;;;1.40;0.77;;;5.90;82.90;;;;;;4990472;28;20034;-73
2023/11/29 11:54:46;;;;;;;3.67;1.25;;;6.00;83.50;;;;;;4991262;28;20201;-73
2023/11/29 11:57:12;;;;;;;3.08;1.30;;;6.20;83.30;;;;;;4990823;28;20046;-73
2023/11/29 11:59:38;;;;;;;3.60;1.15;;;6.10;82.10;;;;;;4988665;28;20034;-73
2023/11/29 12:02:04;;;;;;;3.55;1.13;;;6.40;83.20;;;;;;4990478;28;20034;-73
2023/11/29 12:04:29;;;;;;;4.85;1.30;;;6.40;81.80;;;;;;4990892;28;20061;-73
2023/11/29 12:06:56;;;;;;;2.50;1.02;;;6.40;81.90;;;;;;4990569;28;20204;-73
2023/11/29 12:09:22;;;;;;;2.42;0.93;;;6.40;81.70;;;;;;4990462;28;20856;-73
2023/11/29 12:11:47;;;;;;;6.22;1.40;;;6.30;81.10;;;;;;4989312;28;20046;-73
2023/11/29 12:14:16;;;;;;;2.75;1.13;;;6.20;81.70;;;;;;4989407;28;20037;-73
2023/11/29 12:16:42;;;;;;;2.35;1.10;;;6.20;81.20;;;;;;4990637;28;20937;-73
2023/11/29 12:19:08;;;;;;;2.90;1.20;;;6.10;81.30;;;;;;4990366;28;20482;-73
2023/11/29 12:21:34;;;;;;;3.05;1.40;;;6.10;81.00;;;;;;4989174;28;20036;-73
2023/11/29 12:24:05;;;;;;;4.55;1.30;;;6.20;80.60;;;;;;4991258;28;20030;-73
2023/11/29 12:26:31;;;;;;;2.13;1.10;;;6.30;80.10;;;;;;4994986;28;20100;-73
2023/11/29 12:29:01;;;;;;;2.85;1.20;;;6.30;80.30;;;;;;4993809;28;20080;-73
2023/11/29 12:31:26;;;;;;;3.28;1.42;;;6.20;80.20;;;;;;4994014;28;20054;-73
2023/11/29 12:33:53;;;;;;;4.70;0.95;;;6.30;80.20;;;;;;4994726;28;20188;-72
2023/11/29 12:36:20;;;;;;;3.67;1.30;;;6.20;80.70;;;;;;4993597;28;20118;-73
2023/11/29 12:38:50;;;;;;;2.67;0.98;;;6.20;80.90;;;;;;4992784;28;20033;-73
2023/11/29 12:41:15;;;;;;;2.58;1.20;;;6.20;81.70;;;;;;4994630;28;20034;-73
2023/11/29 12:43:41;;;;;;;2.38;0.90;;;6.20;81.80;;;;;;4993148;28;20080;-74
2023/11/29 12:46:07;;;;;;;2.08;1.10;;;6.20;81.90;;;;;;4993069;28;20446;-73
2023/11/29 12:48:34;;;;;;;3.25;1.20;;;6.00;81.10;;;;;;4995246;28;20495;-72
2023/11/29 12:51:00;;;;;;;3.42;1.17;;;6.00;81.40;;;;;;4991659;28;20033;-73
2023/11/29 12:53:25;;;;;;;5.45;2.58;;;6.10;81.70;;;;;;4993220;28;20664;-73
2023/11/29 12:55:51;;;;;;;5.65;2.35;;;6.10;81.50;;;;;;4993677;28;20443;-73